sensor_id;sensor_type;location;lat;lon;timestamp;temperature;humidity
66708;DHT22;53622;0.000;0.000;2022-10-23T00:01:53;21.50;77.30
66708;DHT22;53622;0.000;0.000;2022-10-23T00:04:23;21.50;77.30
66708;DHT22;53622;0.000;0.000;2022-10-23T00:06:53;21.50;77.20
66708;DHT22;53622;0.000;0.000;2022-10-23T00:09:23;21.50;77.20
66708;DHT22;53622;0.000;0.000;2022-10-23T00:11:53;21.50;77.30
66708;DHT22;53622;0.000;0.000;2022-10-23T00:14:23;21.50;77.20
66708;DHT22;53622;0.000;0.000;2022-10-23T00:16:52;21.50;77.20
66708;DHT22;53622;0.000;0.000;2022-10-23T00:19:21;21.50;77.20
66708;DHT22;53622;0.000;0.000;2022-10-23T00:21:50;21.50;77.10
66708;DHT22;53622;0.000;0.000;2022-10-23T00:24:20;21.50;77.10
66708;DHT22;53622;0.000;0.000;2022-10-23T00:26:50;21.50;77.10
66708;DHT22;53622;0.000;0.000;2022-10-23T00:29:20;21.50;77.10
66708;DHT22;53622;0.000;0.000;2022-10-23T00:31:49;21.50;77.10
66708;DHT22;53622;0.000;0.000;2022-10-23T00:34:18;21.50;77.00
66708;DHT22;53622;0.000;0.000;2022-10-23T00:36:47;21.50;77.10
66708;DHT22;53622;0.000;0.000;2022-10-23T00:39:16;21.50;77.00
66708;DHT22;53622;0.000;0.000;2022-10-23T00:41:45;21.50;77.00
66708;DHT22;53622;0.000;0.000;2022-10-23T00:47:18;21.50;76.90
66708;DHT22;53622;0.000;0.000;2022-10-23T00:49:48;21.50;77.00
66708;DHT22;53622;0.000;0.000;2022-10-23T00:52:17;21.50;77.00
66708;DHT22;53622;0.000;0.000;2022-10-23T00:54:46;21.50;76.90
66708;DHT22;53622;0.000;0.000;2022-10-23T00:57:15;21.50;76.80
66708;DHT22;53622;0.000;0.000;2022-10-23T00:59:45;21.50;76.80
66708;DHT22;53622;0.000;0.000;2022-10-23T01:02:14;21.50;76.80
66708;DHT22;53622;0.000;0.000;2022-10-23T01:04:45;21.40;76.80
66708;DHT22;53622;0.000;0.000;2022-10-23T01:07:19;21.40;76.80
66708;DHT22;53622;0.000;0.000;2022-10-23T01:09:58;21.40;76.70
66708;DHT22;53622;0.000;0.000;2022-10-23T01:12:35;21.40;76.80
66708;DHT22;53622;0.000;0.000;2022-10-23T01:15:13;21.40;76.80
66708;DHT22;53622;0.000;0.000;2022-10-23T01:17:47;21.40;76.80
66708;DHT22;53622;0.000;0.000;2022-10-23T01:20:33;21.40;76.80
66708;DHT22;53622;0.000;0.000;2022-10-23T01:23:21;21.40;76.70
66708;DHT22;53622;0.000;0.000;2022-10-23T01:26:01;21.40;76.80
66708;DHT22;53622;0.000;0.000;2022-10-23T01:28:40;21.40;76.70
66708;DHT22;53622;0.000;0.000;2022-10-23T01:31:16;21.40;76.80
66708;DHT22;53622;0.000;0.000;2022-10-23T01:33:47;21.40;76.70
66708;DHT22;53622;0.000;0.000;2022-10-23T01:36:27;21.40;76.70
66708;DHT22;53622;0.000;0.000;2022-10-23T01:39:02;21.40;76.70
66708;DHT22;53622;0.000;0.000;2022-10-23T01:41:38;21.40;76.70
66708;DHT22;53622;0.000;0.000;2022-10-23T01:44:13;21.40;76.70
66708;DHT22;53622;0.000;0.000;2022-10-23T01:46:45;21.40;76.60
66708;DHT22;53622;0.000;0.000;2022-10-23T01:49:16;21.40;76.60
66708;DHT22;53622;0.000;0.000;2022-10-23T01:51:53;21.40;76.50
66708;DHT22;53622;0.000;0.000;2022-10-23T01:54:25;21.40;76.90
66708;DHT22;53622;0.000;0.000;2022-10-23T01:56:58;21.40;76.50
66708;DHT22;53622;0.000;0.000;2022-10-23T01:59:35;21.40;76.40
66708;DHT22;53622;0.000;0.000;2022-10-23T02:02:06;21.40;76.40
66708;DHT22;53622;0.000;0.000;2022-10-23T02:04:46;21.40;76.40
66708;DHT22;53622;0.000;0.000;2022-10-23T02:07:17;21.40;76.40
66708;DHT22;53622;0.000;0.000;2022-10-23T02:09:46;21.40;76.40
66708;DHT22;53622;0.000;0.000;2022-10-23T02:12:25;21.40;76.40
66708;DHT22;53622;0.000;0.000;2022-10-23T02:14:59;21.40;76.40
66708;DHT22;53622;0.000;0.000;2022-10-23T02:17:38;21.40;76.40
66708;DHT22;53622;0.000;0.000;2022-10-23T02:20:16;21.40;76.40
66708;DHT22;53622;0.000;0.000;2022-10-23T02:22:54;21.40;76.40
66708;DHT22;53622;0.000;0.000;2022-10-23T02:25:29;21.30;76.30
66708;DHT22;53622;0.000;0.000;2022-10-23T02:28:03;21.40;76.30
66708;DHT22;53622;0.000;0.000;2022-10-23T02:30:44;21.40;76.20
66708;DHT22;53622;0.000;0.000;2022-10-23T02:33:16;21.30;76.20
66708;DHT22;53622;0.000;0.000;2022-10-23T02:35:46;21.30;76.10
66708;DHT22;53622;0.000;0.000;2022-10-23T02:38:32;21.30;76.10
66708;DHT22;53622;0.000;0.000;2022-10-23T02:41:15;21.30;76.10
66708;DHT22;53622;0.000;0.000;2022-10-23T02:43:54;21.30;76.10
66708;DHT22;53622;0.000;0.000;2022-10-23T02:46:33;21.30;76.10
66708;DHT22;53622;0.000;0.000;2022-10-23T02:49:12;21.30;76.20
66708;DHT22;53622;0.000;0.000;2022-10-23T02:51:51;21.30;76.90
66708;DHT22;53622;0.000;0.000;2022-10-23T02:54:30;21.30;76.10
66708;DHT22;53622;0.000;0.000;2022-10-23T02:57:12;21.30;76.00
66708;DHT22;53622;0.000;0.000;2022-10-23T02:59:50;21.40;76.10
66708;DHT22;53622;0.000;0.000;2022-10-23T03:02:24;21.30;76.00
66708;DHT22;53622;0.000;0.000;2022-10-23T03:04:57;21.30;76.00
66708;DHT22;53622;0.000;0.000;2022-10-23T03:07:28;21.30;75.90
66708;DHT22;53622;0.000;0.000;2022-10-23T03:10:05;21.30;76.00
66708;DHT22;53622;0.000;0.000;2022-10-23T03:12:36;21.30;75.90
66708;DHT22;53622;0.000;0.000;2022-10-23T03:15:09;21.30;75.90
66708;DHT22;53622;0.000;0.000;2022-10-23T03:17:41;21.30;75.80
66708;DHT22;53622;0.000;0.000;2022-10-23T03:20:14;21.30;75.80
66708;DHT22;53622;0.000;0.000;2022-10-23T03:22:44;21.30;75.80
66708;DHT22;53622;0.000;0.000;2022-10-23T03:25:14;21.30;75.80
66708;DHT22;53622;0.000;0.000;2022-10-23T03:27:45;21.30;75.80
66708;DHT22;53622;0.000;0.000;2022-10-23T03:30:16;21.30;75.80
66708;DHT22;53622;0.000;0.000;2022-10-23T03:32:50;21.30;75.80
66708;DHT22;53622;0.000;0.000;2022-10-23T03:35:20;21.30;75.70
66708;DHT22;53622;0.000;0.000;2022-10-23T03:37:49;21.30;75.70
66708;DHT22;53622;0.000;0.000;2022-10-23T03:40:18;21.30;75.70
66708;DHT22;53622;0.000;0.000;2022-10-23T03:42:47;21.30;75.70
66708;DHT22;53622;0.000;0.000;2022-10-23T03:45:18;21.30;75.70
66708;DHT22;53622;0.000;0.000;2022-10-23T03:47:49;21.30;75.70
66708;DHT22;53622;0.000;0.000;2022-10-23T03:50:19;21.30;75.70
66708;DHT22;53622;0.000;0.000;2022-10-23T03:52:48;21.30;75.70
66708;DHT22;53622;0.000;0.000;2022-10-23T03:55:17;21.30;75.70
66708;DHT22;53622;0.000;0.000;2022-10-23T03:57:46;21.30;75.70
66708;DHT22;53622;0.000;0.000;2022-10-23T04:00:19;21.30;75.60
66708;DHT22;53622;0.000;0.000;2022-10-23T04:02:50;21.20;75.70
66708;DHT22;53622;0.000;0.000;2022-10-23T04:05:20;21.20;75.60
66708;DHT22;53622;0.000;0.000;2022-10-23T04:07:54;21.20;75.70
66708;DHT22;53622;0.000;0.000;2022-10-23T04:10:23;21.20;75.70
66708;DHT22;53622;0.000;0.000;2022-10-23T04:12:52;21.20;75.60
66708;DHT22;53622;0.000;0.000;2022-10-23T04:15:21;21.20;75.60
66708;DHT22;53622;0.000;0.000;2022-10-23T04:17:52;21.20;75.50
66708;DHT22;53622;0.000;0.000;2022-10-23T04:20:21;21.20;75.50
66708;DHT22;53622;0.000;0.000;2022-10-23T04:22:50;21.20;75.50
66708;DHT22;53622;0.000;0.000;2022-10-23T04:25:20;21.20;75.50
66708;DHT22;53622;0.000;0.000;2022-10-23T04:27:50;21.20;75.40
66708;DHT22;53622;0.000;0.000;2022-10-23T04:30:19;21.20;75.40
66708;DHT22;53622;0.000;0.000;2022-10-23T04:32:49;21.20;76.20
66708;DHT22;53622;0.000;0.000;2022-10-23T04:35:20;21.20;75.40
66708;DHT22;53622;0.000;0.000;2022-10-23T04:37:49;21.20;75.50
66708;DHT22;53622;0.000;0.000;2022-10-23T04:40:19;21.20;75.40
66708;DHT22;53622;0.000;0.000;2022-10-23T04:42:49;21.20;75.40
66708;DHT22;53622;0.000;0.000;2022-10-23T04:45:18;21.20;75.40
66708;DHT22;53622;0.000;0.000;2022-10-23T04:47:48;21.20;75.40
66708;DHT22;53622;0.000;0.000;2022-10-23T04:50:17;21.20;75.40
66708;DHT22;53622;0.000;0.000;2022-10-23T04:53:08;21.20;75.40
66708;DHT22;53622;0.000;0.000;2022-10-23T04:56:12;21.20;75.40
66708;DHT22;53622;0.000;0.000;2022-10-23T04:58:59;21.20;75.50
66708;DHT22;53622;0.000;0.000;2022-10-23T05:01:29;21.20;75.50
66708;DHT22;53622;0.000;0.000;2022-10-23T05:04:00;21.20;75.40
66708;DHT22;53622;0.000;0.000;2022-10-23T05:06:30;21.20;75.40
66708;DHT22;53622;0.000;0.000;2022-10-23T05:09:20;21.20;75.40
66708;DHT22;53622;0.000;0.000;2022-10-23T05:11:59;21.20;75.40
66708;DHT22;53622;0.000;0.000;2022-10-23T05:14:28;21.10;75.40
66708;DHT22;53622;0.000;0.000;2022-10-23T05:17:00;21.10;75.40
66708;DHT22;53622;0.000;0.000;2022-10-23T05:19:35;21.20;75.30
66708;DHT22;53622;0.000;0.000;2022-10-23T05:22:07;21.20;75.40
66708;DHT22;53622;0.000;0.000;2022-10-23T05:24:51;21.10;75.30
66708;DHT22;53622;0.000;0.000;2022-10-23T05:27:25;21.10;75.30
66708;DHT22;53622;0.000;0.000;2022-10-23T05:29:55;21.10;75.30
66708;DHT22;53622;0.000;0.000;2022-10-23T05:32:28;21.10;75.30
66708;DHT22;53622;0.000;0.000;2022-10-23T05:35:00;21.10;75.30
66708;DHT22;53622;0.000;0.000;2022-10-23T05:37:32;21.10;75.30
66708;DHT22;53622;0.000;0.000;2022-10-23T05:40:14;21.10;75.30
66708;DHT22;53622;0.000;0.000;2022-10-23T05:42:44;21.10;75.30
66708;DHT22;53622;0.000;0.000;2022-10-23T05:45:16;21.10;75.20
66708;DHT22;53622;0.000;0.000;2022-10-23T05:48:05;21.10;75.30
66708;DHT22;53622;0.000;0.000;2022-10-23T05:51:08;21.10;75.20
66708;DHT22;53622;0.000;0.000;2022-10-23T05:54:02;21.10;75.30
66708;DHT22;53622;0.000;0.000;2022-10-23T05:56:42;21.10;75.30
66708;DHT22;53622;0.000;0.000;2022-10-23T05:59:22;21.10;75.30
66708;DHT22;53622;0.000;0.000;2022-10-23T06:01:58;21.10;75.30
66708;DHT22;53622;0.000;0.000;2022-10-23T06:04:37;21.10;75.30
66708;DHT22;53622;0.000;0.000;2022-10-23T06:07:27;21.10;75.20
66708;DHT22;53622;0.000;0.000;2022-10-23T06:10:04;21.10;75.30
66708;DHT22;53622;0.000;0.000;2022-10-23T06:12:40;21.10;75.10
66708;DHT22;53622;0.000;0.000;2022-10-23T06:15:13;21.10;75.20
66708;DHT22;53622;0.000;0.000;2022-10-23T06:17:59;21.10;75.20
66708;DHT22;53622;0.000;0.000;2022-10-23T06:20:33;21.10;75.20
66708;DHT22;53622;0.000;0.000;2022-10-23T06:23:09;21.10;75.20
66708;DHT22;53622;0.000;0.000;2022-10-23T06:26:02;21.10;75.20
66708;DHT22;53622;0.000;0.000;2022-10-23T06:28:40;21.10;75.20
66708;DHT22;53622;0.000;0.000;2022-10-23T06:31:11;21.10;75.20
66708;DHT22;53622;0.000;0.000;2022-10-23T06:33:41;21.10;75.20
66708;DHT22;53622;0.000;0.000;2022-10-23T06:36:11;21.10;75.10
66708;DHT22;53622;0.000;0.000;2022-10-23T06:38:42;21.10;75.20
66708;DHT22;53622;0.000;0.000;2022-10-23T06:41:14;21.10;75.90
66708;DHT22;53622;0.000;0.000;2022-10-23T06:43:48;21.10;75.10
66708;DHT22;53622;0.000;0.000;2022-10-23T06:46:25;21.10;75.20
66708;DHT22;53622;0.000;0.000;2022-10-23T06:49:02;21.10;75.10
66708;DHT22;53622;0.000;0.000;2022-10-23T06:51:37;21.10;75.10
66708;DHT22;53622;0.000;0.000;2022-10-23T06:54:11;21.10;75.10
66708;DHT22;53622;0.000;0.000;2022-10-23T06:56:49;21.10;75.10
66708;DHT22;53622;0.000;0.000;2022-10-23T06:59:30;21.10;75.10
66708;DHT22;53622;0.000;0.000;2022-10-23T07:02:00;21.10;75.10
66708;DHT22;53622;0.000;0.000;2022-10-23T07:04:29;21.10;75.10
66708;DHT22;53622;0.000;0.000;2022-10-23T07:07:00;21.10;75.10
66708;DHT22;53622;0.000;0.000;2022-10-23T07:09:38;21.10;75.10
66708;DHT22;53622;0.000;0.000;2022-10-23T07:12:46;21.10;75.10
66708;DHT22;53622;0.000;0.000;2022-10-23T07:15:49;21.00;75.10
66708;DHT22;53622;0.000;0.000;2022-10-23T07:18:23;21.00;75.90
66708;DHT22;53622;0.000;0.000;2022-10-23T07:21:11;21.00;75.10
66708;DHT22;53622;0.000;0.000;2022-10-23T07:23:42;21.00;75.10
66708;DHT22;53622;0.000;0.000;2022-10-23T07:26:13;21.00;75.10
66708;DHT22;53622;0.000;0.000;2022-10-23T07:28:44;21.00;75.10
66708;DHT22;53622;0.000;0.000;2022-10-23T07:31:20;21.00;75.00
66708;DHT22;53622;0.000;0.000;2022-10-23T07:34:12;21.10;75.10
66708;DHT22;53622;0.000;0.000;2022-10-23T07:36:44;21.00;75.10
66708;DHT22;53622;0.000;0.000;2022-10-23T07:39:13;21.00;75.10
66708;DHT22;53622;0.000;0.000;2022-10-23T07:41:50;21.00;75.10
66708;DHT22;53622;0.000;0.000;2022-10-23T07:44:20;21.10;75.20
66708;DHT22;53622;0.000;0.000;2022-10-23T07:46:56;21.10;75.10
66708;DHT22;53622;0.000;0.000;2022-10-23T07:49:25;21.00;75.00
66708;DHT22;53622;0.000;0.000;2022-10-23T07:51:55;21.00;75.10
66708;DHT22;53622;0.000;0.000;2022-10-23T07:54:33;21.00;75.00
66708;DHT22;53622;0.000;0.000;2022-10-23T07:57:11;21.00;75.10
66708;DHT22;53622;0.000;0.000;2022-10-23T07:59:48;21.00;75.10
66708;DHT22;53622;0.000;0.000;2022-10-23T08:02:22;21.00;75.20
66708;DHT22;53622;0.000;0.000;2022-10-23T08:04:52;21.00;75.10
66708;DHT22;53622;0.000;0.000;2022-10-23T08:07:37;21.00;75.10
66708;DHT22;53622;0.000;0.000;2022-10-23T08:10:07;21.00;75.10
66708;DHT22;53622;0.000;0.000;2022-10-23T08:12:39;21.00;75.10
66708;DHT22;53622;0.000;0.000;2022-10-23T08:15:10;21.00;75.10
66708;DHT22;53622;0.000;0.000;2022-10-23T08:17:52;21.00;75.10
66708;DHT22;53622;0.000;0.000;2022-10-23T08:20:42;21.00;75.20
66708;DHT22;53622;0.000;0.000;2022-10-23T08:23:12;21.00;75.30
66708;DHT22;53622;0.000;0.000;2022-10-23T08:25:44;21.00;75.20
66708;DHT22;53622;0.000;0.000;2022-10-23T08:28:15;21.00;75.30
66708;DHT22;53622;0.000;0.000;2022-10-23T08:30:53;21.00;75.20
66708;DHT22;53622;0.000;0.000;2022-10-23T08:33:24;21.00;75.20
66708;DHT22;53622;0.000;0.000;2022-10-23T08:35:53;21.00;75.20
66708;DHT22;53622;0.000;0.000;2022-10-23T08:38:29;21.00;75.20
66708;DHT22;53622;0.000;0.000;2022-10-23T08:40:59;21.00;75.20
66708;DHT22;53622;0.000;0.000;2022-10-23T08:43:55;21.00;75.20
66708;DHT22;53622;0.000;0.000;2022-10-23T08:46:40;21.00;75.20
66708;DHT22;53622;0.000;0.000;2022-10-23T08:49:41;21.00;75.30
66708;DHT22;53622;0.000;0.000;2022-10-23T08:52:18;21.00;75.20
66708;DHT22;53622;0.000;0.000;2022-10-23T08:54:55;21.00;76.00
66708;DHT22;53622;0.000;0.000;2022-10-23T08:57:31;21.00;75.20
66708;DHT22;53622;0.000;0.000;2022-10-23T09:00:12;21.00;75.30
66708;DHT22;53622;0.000;0.000;2022-10-23T09:02:44;21.00;75.30
66708;DHT22;53622;0.000;0.000;2022-10-23T09:05:18;21.00;75.40
66708;DHT22;53622;0.000;0.000;2022-10-23T09:08:06;21.00;75.30
66708;DHT22;53622;0.000;0.000;2022-10-23T09:10:50;21.00;75.30
66708;DHT22;53622;0.000;0.000;2022-10-23T09:16:28;21.00;75.30
66708;DHT22;53622;0.000;0.000;2022-10-23T09:18:58;21.00;75.40
66708;DHT22;53622;0.000;0.000;2022-10-23T09:21:29;21.00;75.50
66708;DHT22;53622;0.000;0.000;2022-10-23T09:23:58;21.00;75.40
66708;DHT22;53622;0.000;0.000;2022-10-23T09:26:28;21.00;75.40
66708;DHT22;53622;0.000;0.000;2022-10-23T09:29:13;21.00;75.40
66708;DHT22;53622;0.000;0.000;2022-10-23T09:31:49;21.00;75.40
66708;DHT22;53622;0.000;0.000;2022-10-23T09:34:21;21.00;75.40
66708;DHT22;53622;0.000;0.000;2022-10-23T09:36:55;21.00;75.50
66708;DHT22;53622;0.000;0.000;2022-10-23T09:39:28;21.00;75.40
66708;DHT22;53622;0.000;0.000;2022-10-23T09:41:58;21.00;75.40
66708;DHT22;53622;0.000;0.000;2022-10-23T09:44:30;21.00;75.40
66708;DHT22;53622;0.000;0.000;2022-10-23T09:47:09;21.00;75.50
66708;DHT22;53622;0.000;0.000;2022-10-23T09:49:39;21.00;75.50
66708;DHT22;53622;0.000;0.000;2022-10-23T09:52:29;21.00;75.50
66708;DHT22;53622;0.000;0.000;2022-10-23T09:55:02;21.00;75.50
66708;DHT22;53622;0.000;0.000;2022-10-23T09:57:36;21.00;75.60
66708;DHT22;53622;0.000;0.000;2022-10-23T10:00:16;21.00;75.70
66708;DHT22;53622;0.000;0.000;2022-10-23T10:02:55;21.00;75.60
66708;DHT22;53622;0.000;0.000;2022-10-23T10:05:37;21.00;75.60
66708;DHT22;53622;0.000;0.000;2022-10-23T10:08:23;21.00;75.70
66708;DHT22;53622;0.000;0.000;2022-10-23T10:10:59;21.00;75.70
66708;DHT22;53622;0.000;0.000;2022-10-23T10:13:47;21.00;75.70
66708;DHT22;53622;0.000;0.000;2022-10-23T10:16:27;21.00;75.60
66708;DHT22;53622;0.000;0.000;2022-10-23T10:19:05;21.10;75.70
66708;DHT22;53622;0.000;0.000;2022-10-23T10:21:42;21.00;75.50
66708;DHT22;53622;0.000;0.000;2022-10-23T10:24:20;21.10;75.60
66708;DHT22;53622;0.000;0.000;2022-10-23T10:26:57;21.10;75.50
66708;DHT22;53622;0.000;0.000;2022-10-23T10:29:44;21.10;75.40
66708;DHT22;53622;0.000;0.000;2022-10-23T10:32:25;21.10;75.40
66708;DHT22;53622;0.000;0.000;2022-10-23T10:35:09;21.10;75.50
66708;DHT22;53622;0.000;0.000;2022-10-23T10:37:53;21.10;75.40
66708;DHT22;53622;0.000;0.000;2022-10-23T10:40:29;21.10;75.50
66708;DHT22;53622;0.000;0.000;2022-10-23T10:43:12;21.10;75.50
66708;DHT22;53622;0.000;0.000;2022-10-23T10:45:46;21.10;75.40
66708;DHT22;53622;0.000;0.000;2022-10-23T10:48:23;21.10;75.40
66708;DHT22;53622;0.000;0.000;2022-10-23T10:51:25;21.10;75.30
66708;DHT22;53622;0.000;0.000;2022-10-23T10:54:13;21.10;75.30
66708;DHT22;53622;0.000;0.000;2022-10-23T10:56:47;21.10;75.30
66708;DHT22;53622;0.000;0.000;2022-10-23T10:59:21;21.10;75.40
66708;DHT22;53622;0.000;0.000;2022-10-23T11:01:55;21.10;75.30
66708;DHT22;53622;0.000;0.000;2022-10-23T11:04:31;21.20;75.40
66708;DHT22;53622;0.000;0.000;2022-10-23T11:07:06;21.10;75.30
66708;DHT22;53622;0.000;0.000;2022-10-23T11:09:37;21.10;75.40
66708;DHT22;53622;0.000;0.000;2022-10-23T11:12:14;21.10;75.40
66708;DHT22;53622;0.000;0.000;2022-10-23T11:14:45;21.10;75.50
66708;DHT22;53622;0.000;0.000;2022-10-23T11:17:18;21.10;75.40
66708;DHT22;53622;0.000;0.000;2022-10-23T11:19:56;21.10;75.40
66708;DHT22;53622;0.000;0.000;2022-10-23T11:22:34;21.10;75.40
66708;DHT22;53622;0.000;0.000;2022-10-23T11:25:30;21.10;75.50
66708;DHT22;53622;0.000;0.000;2022-10-23T11:28:18;21.20;75.50
66708;DHT22;53622;0.000;0.000;2022-10-23T11:31:03;21.10;75.50
66708;DHT22;53622;0.000;0.000;2022-10-23T11:34:12;21.10;75.50
66708;DHT22;53622;0.000;0.000;2022-10-23T11:36:47;21.10;75.70
66708;DHT22;53622;0.000;0.000;2022-10-23T11:39:21;21.10;75.80
66708;DHT22;53622;0.000;0.000;2022-10-23T11:41:53;21.10;75.80
66708;DHT22;53622;0.000;0.000;2022-10-23T11:44:39;21.10;75.70
66708;DHT22;53622;0.000;0.000;2022-10-23T11:47:29;21.10;75.80
66708;DHT22;53622;0.000;0.000;2022-10-23T11:50:24;21.20;75.70
66708;DHT22;53622;0.000;0.000;2022-10-23T11:53:00;21.10;75.80
66708;DHT22;53622;0.000;0.000;2022-10-23T11:55:59;21.10;75.80
66708;DHT22;53622;0.000;0.000;2022-10-23T11:58:40;21.10;75.90
66708;DHT22;53622;0.000;0.000;2022-10-23T12:01:38;21.10;76.00
66708;DHT22;53622;0.000;0.000;2022-10-23T12:04:19;21.20;75.90
66708;DHT22;53622;0.000;0.000;2022-10-23T12:06:51;21.10;76.00
66708;DHT22;53622;0.000;0.000;2022-10-23T12:09:25;21.10;76.00
66708;DHT22;53622;0.000;0.000;2022-10-23T12:12:04;21.20;76.00
66708;DHT22;53622;0.000;0.000;2022-10-23T12:14:42;21.20;75.90
66708;DHT22;53622;0.000;0.000;2022-10-23T12:17:32;21.20;75.90
66708;DHT22;53622;0.000;0.000;2022-10-23T12:20:26;21.20;76.60
66708;DHT22;53622;0.000;0.000;2022-10-23T12:26:11;21.20;75.90
66708;DHT22;53622;0.000;0.000;2022-10-23T12:28:48;21.20;76.00
66708;DHT22;53622;0.000;0.000;2022-10-23T12:31:27;21.20;76.10
66708;DHT22;53622;0.000;0.000;2022-10-23T12:34:08;21.20;76.10
66708;DHT22;53622;0.000;0.000;2022-10-23T12:37:00;21.20;76.10
66708;DHT22;53622;0.000;0.000;2022-10-23T12:39:33;21.20;76.10
66708;DHT22;53622;0.000;0.000;2022-10-23T12:42:04;21.20;76.00
66708;DHT22;53622;0.000;0.000;2022-10-23T12:44:38;21.20;76.00
66708;DHT22;53622;0.000;0.000;2022-10-23T12:47:15;21.20;76.00
66708;DHT22;53622;0.000;0.000;2022-10-23T12:49:49;21.20;76.00
66708;DHT22;53622;0.000;0.000;2022-10-23T12:52:19;21.20;76.00
66708;DHT22;53622;0.000;0.000;2022-10-23T12:54:51;21.20;76.90
66708;DHT22;53622;0.000;0.000;2022-10-23T12:57:21;21.20;76.10
66708;DHT22;53622;0.000;0.000;2022-10-23T12:59:55;21.20;76.20
66708;DHT22;53622;0.000;0.000;2022-10-23T13:02:27;21.20;76.20
66708;DHT22;53622;0.000;0.000;2022-10-23T13:05:00;21.20;76.30
66708;DHT22;53622;0.000;0.000;2022-10-23T13:07:34;21.20;76.30
66708;DHT22;53622;0.000;0.000;2022-10-23T13:10:06;21.20;76.40
66708;DHT22;53622;0.000;0.000;2022-10-23T13:12:53;21.20;76.30
66708;DHT22;53622;0.000;0.000;2022-10-23T13:15:23;21.20;76.40
66708;DHT22;53622;0.000;0.000;2022-10-23T13:18:03;21.20;76.40
66708;DHT22;53622;0.000;0.000;2022-10-23T13:20:36;21.20;76.40
66708;DHT22;53622;0.000;0.000;2022-10-23T13:23:15;21.20;76.40
66708;DHT22;53622;0.000;0.000;2022-10-23T13:25:52;21.20;76.50
66708;DHT22;53622;0.000;0.000;2022-10-23T13:28:24;21.20;76.60
66708;DHT22;53622;0.000;0.000;2022-10-23T13:31:02;21.20;76.60
66708;DHT22;53622;0.000;0.000;2022-10-23T13:33:35;21.20;76.60
66708;DHT22;53622;0.000;0.000;2022-10-23T13:36:20;21.20;76.60
66708;DHT22;53622;0.000;0.000;2022-10-23T13:38:59;21.20;76.60
66708;DHT22;53622;0.000;0.000;2022-10-23T13:41:33;21.20;76.60
66708;DHT22;53622;0.000;0.000;2022-10-23T13:44:03;21.20;76.60
66708;DHT22;53622;0.000;0.000;2022-10-23T13:46:32;21.20;76.60
66708;DHT22;53622;0.000;0.000;2022-10-23T13:49:02;21.20;76.60
66708;DHT22;53622;0.000;0.000;2022-10-23T13:51:35;21.20;76.70
66708;DHT22;53622;0.000;0.000;2022-10-23T13:54:13;21.20;76.60
66708;DHT22;53622;0.000;0.000;2022-10-23T13:56:43;21.20;76.70
66708;DHT22;53622;0.000;0.000;2022-10-23T13:59:13;21.20;76.70
66708;DHT22;53622;0.000;0.000;2022-10-23T14:01:44;21.20;76.70
66708;DHT22;53622;0.000;0.000;2022-10-23T14:04:16;21.20;76.80
66708;DHT22;53622;0.000;0.000;2022-10-23T14:06:46;21.20;76.80
66708;DHT22;53622;0.000;0.000;2022-10-23T14:09:17;21.20;76.80
66708;DHT22;53622;0.000;0.000;2022-10-23T14:11:46;21.20;76.90
66708;DHT22;53622;0.000;0.000;2022-10-23T14:14:15;21.20;76.90
66708;DHT22;53622;0.000;0.000;2022-10-23T14:16:44;21.20;76.90
66708;DHT22;53622;0.000;0.000;2022-10-23T14:19:13;21.20;77.00
66708;DHT22;53622;0.000;0.000;2022-10-23T14:21:43;21.20;77.00
66708;DHT22;53622;0.000;0.000;2022-10-23T14:24:13;21.20;77.10
66708;DHT22;53622;0.000;0.000;2022-10-23T14:26:42;21.20;77.00
66708;DHT22;53622;0.000;0.000;2022-10-23T14:29:11;21.20;77.00
66708;DHT22;53622;0.000;0.000;2022-10-23T14:31:49;21.20;77.10
66708;DHT22;53622;0.000;0.000;2022-10-23T14:34:18;21.20;77.10
66708;DHT22;53622;0.000;0.000;2022-10-23T14:36:48;21.20;77.20
66708;DHT22;53622;0.000;0.000;2022-10-23T14:39:35;21.20;77.10
66708;DHT22;53622;0.000;0.000;2022-10-23T14:42:05;21.20;77.20
66708;DHT22;53622;0.000;0.000;2022-10-23T14:44:34;21.20;77.30
66708;DHT22;53622;0.000;0.000;2022-10-23T14:47:08;21.20;77.20
66708;DHT22;53622;0.000;0.000;2022-10-23T14:49:37;21.20;77.30
66708;DHT22;53622;0.000;0.000;2022-10-23T14:52:07;21.20;77.40
66708;DHT22;53622;0.000;0.000;2022-10-23T14:54:38;21.20;77.40
66708;DHT22;53622;0.000;0.000;2022-10-23T14:57:07;21.20;77.50
66708;DHT22;53622;0.000;0.000;2022-10-23T14:59:38;21.20;77.40
66708;DHT22;53622;0.000;0.000;2022-10-23T15:02:09;21.20;77.50
66708;DHT22;53622;0.000;0.000;2022-10-23T15:04:39;21.20;77.50
66708;DHT22;53622;0.000;0.000;2022-10-23T15:07:08;21.20;77.60
66708;DHT22;53622;0.000;0.000;2022-10-23T15:09:39;21.20;77.60
66708;DHT22;53622;0.000;0.000;2022-10-23T15:12:08;21.20;77.60
66708;DHT22;53622;0.000;0.000;2022-10-23T15:14:37;21.20;77.80
66708;DHT22;53622;0.000;0.000;2022-10-23T15:17:06;21.20;77.70
66708;DHT22;53622;0.000;0.000;2022-10-23T15:19:42;21.20;78.00
66708;DHT22;53622;0.000;0.000;2022-10-23T15:22:11;21.20;77.90
66708;DHT22;53622;0.000;0.000;2022-10-23T15:24:42;21.20;77.90
66708;DHT22;53622;0.000;0.000;2022-10-23T15:27:11;21.20;77.90
66708;DHT22;53622;0.000;0.000;2022-10-23T15:29:40;21.20;77.90
66708;DHT22;53622;0.000;0.000;2022-10-23T15:32:10;21.20;77.90
66708;DHT22;53622;0.000;0.000;2022-10-23T15:34:40;21.20;77.90
66708;DHT22;53622;0.000;0.000;2022-10-23T15:37:09;21.20;77.90
66708;DHT22;53622;0.000;0.000;2022-10-23T15:39:39;21.20;77.90
66708;DHT22;53622;0.000;0.000;2022-10-23T15:42:10;21.20;78.00
66708;DHT22;53622;0.000;0.000;2022-10-23T15:44:39;21.20;78.10
66708;DHT22;53622;0.000;0.000;2022-10-23T15:47:08;21.30;78.20
66708;DHT22;53622;0.000;0.000;2022-10-23T15:49:38;21.30;78.30
66708;DHT22;53622;0.000;0.000;2022-10-23T15:52:09;21.30;79.20
66708;DHT22;53622;0.000;0.000;2022-10-23T15:54:38;21.30;79.30
66708;DHT22;53622;0.000;0.000;2022-10-23T15:57:09;21.30;79.40
66708;DHT22;53622;0.000;0.000;2022-10-23T15:59:39;21.30;81.90
66708;DHT22;53622;0.000;0.000;2022-10-23T16:02:09;21.30;82.00
66708;DHT22;53622;0.000;0.000;2022-10-23T16:04:39;21.40;82.40
66708;DHT22;53622;0.000;0.000;2022-10-23T16:07:09;21.40;82.20
66708;DHT22;53622;0.000;0.000;2022-10-23T16:09:38;21.40;81.90
66708;DHT22;53622;0.000;0.000;2022-10-23T16:12:09;21.40;82.10
66708;DHT22;53622;0.000;0.000;2022-10-23T16:14:39;21.40;82.20
66708;DHT22;53622;0.000;0.000;2022-10-23T16:17:08;21.40;82.10
66708;DHT22;53622;0.000;0.000;2022-10-23T16:19:40;21.40;82.00
66708;DHT22;53622;0.000;0.000;2022-10-23T16:22:09;21.40;82.30
66708;DHT22;53622;0.000;0.000;2022-10-23T16:24:39;21.40;82.20
66708;DHT22;53622;0.000;0.000;2022-10-23T16:27:10;21.40;82.60
66708;DHT22;53622;0.000;0.000;2022-10-23T16:29:40;21.40;82.60
66708;DHT22;53622;0.000;0.000;2022-10-23T16:32:09;21.40;82.40
66708;DHT22;53622;0.000;0.000;2022-10-23T16:34:41;21.40;82.50
66708;DHT22;53622;0.000;0.000;2022-10-23T16:37:11;21.40;82.40
66708;DHT22;53622;0.000;0.000;2022-10-23T16:40:03;21.40;82.00
66708;DHT22;53622;0.000;0.000;2022-10-23T16:42:54;21.40;82.20
66708;DHT22;53622;0.000;0.000;2022-10-23T16:45:35;21.40;81.80